Time;durP1;ratioP1;P1;durP2;ratioP2;P2;SDS_P1;SDS_P2;PMS_P1;PMS_P2;Temp;Humidity;BMP_temperature;BMP_pressure;BME280_temperature;BME280_humidity;BME280_pressure;Samples;Min_cycle;Max_cycle;Signal;HPM_P1;HPM_P2
2022/03/06 00:01:47;;;;;;;15.63;7.13;;;2.70;73.40;;;;;;5033145;28;20074;-82
2022/03/06 00:04:15;;;;;;;15.83;7.37;;;2.70;73.40;;;;;;5036711;28;20048;-82
2022/03/06 00:06:42;;;;;;;13.60;6.47;;;2.70;73.60;;;;;;5035809;28;20559;-82
2022/03/06 00:09:09;;;;;;;14.73;7.00;;;2.70;73.60;;;;;;5056323;28;20116;-82
2022/03/06 00:11:36;;;;;;;12.87;6.63;;;2.60;73.60;;;;;;5064726;28;20047;-82
2022/03/06 00:14:03;;;;;;;12.57;5.70;;;2.60;73.70;;;;;;5044242;28;20036;-82
2022/03/06 00:16:30;;;;;;;12.73;6.10;;;2.50;73.70;;;;;;5046333;28;20471;-82
2022/03/06 00:18:58;;;;;;;12.43;6.50;;;2.60;73.90;;;;;;5050390;28;20045;-82
2022/03/06 00:21:25;;;;;;;14.10;6.77;;;2.50;74.00;;;;;;5056882;28;20115;-82
2022/03/06 00:23:52;;;;;;;13.00;6.30;;;2.50;74.20;;;;;;5056520;28;20053;-82
2022/03/06 00:26:19;;;;;;;11.33;5.50;;;2.50;74.20;;;;;;5040257;28;20492;-82
2022/03/06 00:28:46;;;;;;;14.83;6.10;;;2.40;74.20;;;;;;5073027;28;20131;-82
2022/03/06 00:31:16;;;;;;;12.90;6.27;;;2.40;74.30;;;;;;5071068;28;20046;-82
2022/03/06 00:33:47;;;;;;;15.27;7.10;;;2.40;74.40;;;;;;5022951;28;20050;-82
2022/03/06 00:36:17;;;;;;;13.67;6.23;;;2.30;74.40;;;;;;5038785;28;20127;-82
2022/03/06 00:38:45;;;;;;;13.67;7.90;;;2.30;74.50;;;;;;5092703;28;20113;-82
2022/03/06 00:41:14;;;;;;;14.63;6.50;;;2.30;74.70;;;;;;5055991;28;20048;-82
2022/03/06 00:43:42;;;;;;;12.77;6.80;;;2.20;74.70;;;;;;5055051;28;20051;-81
2022/03/06 00:46:11;;;;;;;14.77;7.80;;;2.20;74.80;;;;;;5035956;28;20065;-82
2022/03/06 00:48:38;;;;;;;12.67;6.30;;;2.20;74.80;;;;;;5041438;28;20032;-82
2022/03/06 00:51:06;;;;;;;14.57;7.20;;;2.20;74.90;;;;;;5039576;28;20044;-82
2022/03/06 00:53:33;;;;;;;13.80;6.73;;;2.20;75.00;;;;;;5056025;28;20037;-81
2022/03/06 00:56:00;;;;;;;13.37;7.20;;;2.10;75.10;;;;;;5023087;28;20075;-82
2022/03/06 00:58:29;;;;;;;17.63;8.20;;;2.10;75.20;;;;;;5056197;28;20040;-82
2022/03/06 01:00:56;;;;;;;18.07;7.43;;;2.10;75.40;;;;;;5019419;28;20143;-82
2022/03/06 01:03:24;;;;;;;16.10;7.60;;;2.10;75.30;;;;;;5035677;28;20044;-81
2022/03/06 01:05:51;;;;;;;14.00;7.67;;;2.00;75.20;;;;;;5018914;28;20049;-82
2022/03/06 01:08:19;;;;;;;16.33;8.03;;;2.00;75.40;;;;;;5035966;28;20039;-81
2022/03/06 01:10:48;;;;;;;16.50;7.67;;;2.00;75.50;;;;;;5026540;28;20044;-82
2022/03/06 01:13:17;;;;;;;14.60;6.80;;;2.00;75.50;;;;;;5054629;28;20036;-81
2022/03/06 01:15:45;;;;;;;16.37;7.23;;;2.00;75.50;;;;;;5056280;28;20063;-82
2022/03/06 01:18:13;;;;;;;13.80;6.93;;;2.00;75.50;;;;;;5022761;28;20788;-82
2022/03/06 01:20:40;;;;;;;15.63;7.43;;;2.00;75.50;;;;;;5038869;28;20045;-82
2022/03/06 01:23:09;;;;;;;14.80;7.60;;;1.90;75.60;;;;;;5055287;28;20049;-81
2022/03/06 01:25:36;;;;;;;12.37;6.77;;;1.90;75.60;;;;;;5038904;28;20119;-81
2022/03/06 01:28:04;;;;;;;15.57;7.70;;;1.90;75.60;;;;;;5022177;28;20083;-81
2022/03/06 01:30:31;;;;;;;17.13;7.93;;;1.90;75.70;;;;;;5073172;28;20090;-82
2022/03/06 01:32:58;;;;;;;13.00;6.93;;;1.90;75.80;;;;;;5039111;28;20491;-82
2022/03/06 01:35:25;;;;;;;13.43;7.07;;;1.80;75.70;;;;;;5024190;28;20048;-82
2022/03/06 01:37:52;;;;;;;13.17;6.80;;;1.80;75.90;;;;;;5035249;28;20095;-81
2022/03/06 01:40:19;;;;;;;14.60;6.73;;;1.80;75.90;;;;;;5035511;28;20041;-81
2022/03/06 01:42:48;;;;;;;12.80;6.97;;;1.80;76.00;;;;;;5002413;28;20041;-82
2022/03/06 01:45:18;;;;;;;11.00;5.77;;;1.80;76.20;;;;;;5032363;28;20056;-82
2022/03/06 01:47:49;;;;;;;10.43;5.30;;;1.80;76.10;;;;;;5039008;28;20503;-81
2022/03/06 01:50:25;;;;;;;11.47;6.40;;;1.70;76.10;;;;;;5038334;28;20045;-81
2022/03/06 01:52:53;;;;;;;10.43;5.53;;;1.70;76.30;;;;;;5051388;28;20087;-81
2022/03/06 01:55:23;;;;;;;12.47;6.33;;;1.70;76.30;;;;;;5092886;28;20036;-81
2022/03/06 01:57:53;;;;;;;12.03;6.37;;;1.70;76.30;;;;;;5023565;28;20048;-81
2022/03/06 02:00:23;;;;;;;13.50;6.73;;;1.70;76.50;;;;;;5055113;28;20044;-81
2022/03/06 02:02:51;;;;;;;13.30;7.37;;;1.60;76.50;;;;;;5054857;28;20094;-81
2022/03/06 02:05:18;;;;;;;12.90;6.50;;;1.70;76.40;;;;;;5022294;28;20049;-82
2022/03/06 02:07:45;;;;;;;9.83;5.00;;;1.60;76.50;;;;;;5067594;28;20068;-81
2022/03/06 02:10:14;;;;;;;11.63;5.73;;;1.60;76.50;;;;;;5058070;28;20040;-82
2022/03/06 02:12:45;;;;;;;11.03;5.27;;;1.60;76.60;;;;;;5074784;28;20050;-78
2022/03/06 02:15:14;;;;;;;10.53;5.30;;;1.60;76.60;;;;;;5074615;28;20442;-78
2022/03/06 02:17:46;;;;;;;15.18;8.25;;;1.60;76.80;;;;;;5060838;28;20080;-78
2022/03/06 02:20:20;;;;;;;13.13;6.57;;;1.50;76.70;;;;;;5079134;28;20048;-78
2022/03/06 02:22:48;;;;;;;;;;;1.50;76.80;;;;;;5074897;28;20056;-78
2022/03/06 02:25:18;;;;;;;9.93;5.13;;;1.50;76.80;;;;;;5062029;28;19973;-78
2022/03/06 02:27:46;;;;;;;10.47;5.67;;;1.50;76.90;;;;;;5062150;28;20044;-78
2022/03/06 02:30:17;;;;;;;12.47;6.13;;;1.40;76.90;;;;;;5062096;28;20091;-78
2022/03/06 02:32:46;;;;;;;11.03;5.80;;;1.50;76.90;;;;;;5061795;28;20046;-78
2022/03/06 02:35:13;;;;;;;9.13;5.37;;;1.50;77.00;;;;;;5061909;28;20484;-78
2022/03/06 02:37:41;;;;;;;9.80;5.07;;;1.40;76.90;;;;;;5062182;28;20127;-78
2022/03/06 02:40:10;;;;;;;11.17;5.50;;;1.40;77.00;;;;;;5061888;28;20040;-78
2022/03/06 02:42:40;;;;;;;8.40;4.53;;;1.40;77.00;;;;;;5078559;28;20504;-78
2022/03/06 02:45:13;;;;;;;9.67;5.10;;;1.40;77.00;;;;;;5078297;28;20066;-78
2022/03/06 02:47:41;;;;;;;12.23;6.10;;;1.40;77.20;;;;;;5045115;28;20044;-78
2022/03/06 02:50:15;;;;;;;9.87;4.97;;;1.30;77.10;;;;;;5041463;28;20051;-78
2022/03/06 02:52:44;;;;;;;11.60;5.57;;;1.30;77.10;;;;;;5058051;28;20037;-78
2022/03/06 02:55:14;;;;;;;10.63;5.23;;;1.30;77.20;;;;;;5058680;28;20066;-77
2022/03/06 02:57:41;;;;;;;10.20;5.30;;;1.30;77.20;;;;;;5041825;28;20051;-77
2022/03/06 03:00:13;;;;;;;9.87;5.53;;;1.30;77.20;;;;;;5043444;28;20040;-81
2022/03/06 03:02:42;;;;;;;10.37;4.47;;;1.30;77.30;;;;;;5058699;28;20040;-81
2022/03/06 03:05:13;;;;;;;8.83;4.80;;;1.20;77.30;;;;;;5026561;28;20040;-78
2022/03/06 03:07:42;;;;;;;9.67;4.87;;;1.20;77.40;;;;;;5057586;28;20040;-77
2022/03/06 03:10:15;;;;;;;12.67;6.07;;;1.20;77.50;;;;;;5024797;28;20037;-77
2022/03/06 03:12:42;;;;;;;9.10;5.57;;;1.20;77.60;;;;;;5075757;28;20036;-78
2022/03/06 03:15:13;;;;;;;11.53;5.93;;;1.20;77.50;;;;;;5058389;28;20037;-78
2022/03/06 03:17:41;;;;;;;11.33;6.07;;;1.10;77.60;;;;;;5061234;28;20058;-77
2022/03/06 03:20:09;;;;;;;9.50;5.33;;;1.10;77.50;;;;;;5077359;28;20098;-78
2022/03/06 03:22:37;;;;;;;10.60;6.27;;;1.10;77.60;;;;;;5095316;28;20032;-78
2022/03/06 03:25:05;;;;;;;10.57;5.87;;;1.10;77.60;;;;;;5060762;28;20055;-78
2022/03/06 03:27:32;;;;;;;8.97;4.80;;;1.10;77.70;;;;;;5060411;28;20086;-78
2022/03/06 03:29:59;;;;;;;9.83;5.80;;;1.10;77.70;;;;;;5060931;28;20498;-78
2022/03/06 03:32:26;;;;;;;9.37;6.00;;;1.00;77.80;;;;;;5060677;28;20040;-78
2022/03/06 03:34:53;;;;;;;15.63;8.20;;;1.00;77.70;;;;;;5043908;28;20040;-78
2022/03/06 03:37:21;;;;;;;15.50;8.60;;;1.00;77.90;;;;;;5056484;28;20041;-78
2022/03/06 03:39:48;;;;;;;15.33;8.13;;;1.00;78.10;;;;;;5056696;28;20049;-78
2022/03/06 03:42:15;;;;;;;15.40;8.00;;;0.90;77.90;;;;;;5023861;28;20045;-78
2022/03/06 03:44:41;;;;;;;15.63;8.33;;;0.90;77.90;;;;;;5056968;28;20052;-81
2022/03/06 03:47:12;;;;;;;16.57;8.57;;;0.90;78.00;;;;;;5057397;28;20135;-81
2022/03/06 03:49:39;;;;;;;13.20;7.33;;;0.90;78.10;;;;;;5056383;28;20036;-82
2022/03/06 03:52:06;;;;;;;12.83;7.67;;;0.90;78.10;;;;;;5023896;28;20135;-82
2022/03/06 03:54:33;;;;;;;11.63;6.17;;;0.90;78.20;;;;;;5039297;28;20457;-83
2022/03/06 03:57:00;;;;;;;13.03;6.23;;;0.80;78.10;;;;;;5039764;28;20491;-78
2022/03/06 03:59:27;;;;;;;15.73;8.23;;;0.80;78.30;;;;;;5040242;28;20496;-78
2022/03/06 04:01:54;;;;;;;12.93;7.57;;;0.80;78.40;;;;;;5023649;28;20071;-79
2022/03/06 04:04:21;;;;;;;10.50;5.30;;;0.80;78.30;;;;;;5039707;28;20053;-79
2022/03/06 04:06:48;;;;;;;11.90;5.77;;;0.70;78.30;;;;;;5059423;28;20471;-78
2022/03/06 04:09:15;;;;;;;10.40;5.80;;;0.70;78.40;;;;;;5060010;28;20047;-78
2022/03/06 04:11:42;;;;;;;10.80;5.83;;;0.70;78.40;;;;;;5059340;28;20116;-78
2022/03/06 04:14:09;;;;;;;11.37;5.97;;;0.70;78.50;;;;;;5059781;28;20036;-78
2022/03/06 04:16:36;;;;;;;10.90;5.80;;;0.70;78.50;;;;;;5049956;28;20496;-77
2022/03/06 04:19:04;;;;;;;10.30;5.90;;;0.60;78.50;;;;;;5056017;28;20443;-77
2022/03/06 04:21:31;;;;;;;11.27;5.30;;;0.60;78.50;;;;;;5023322;28;20143;-81
2022/03/06 04:23:58;;;;;;;8.63;4.43;;;0.60;78.60;;;;;;5056676;28;20059;-81
2022/03/06 04:26:25;;;;;;;10.60;5.00;;;0.60;78.70;;;;;;5044396;28;20072;-81
2022/03/06 04:28:52;;;;;;;8.63;4.27;;;0.60;78.60;;;;;;5073019;28;20082;-82
2022/03/06 04:31:19;;;;;;;10.33;4.93;;;0.60;78.70;;;;;;5056529;28;20115;-82
2022/03/06 04:33:46;;;;;;;8.80;4.17;;;0.60;78.70;;;;;;5056067;28;20489;-78
2022/03/06 04:36:13;;;;;;;11.43;5.27;;;0.50;78.70;;;;;;5042203;28;20045;-78
2022/03/06 04:38:41;;;;;;;10.77;5.23;;;0.50;78.90;;;;;;5055662;28;20040;-78
2022/03/06 04:41:10;;;;;;;8.73;4.50;;;0.50;78.90;;;;;;5055501;28;20052;-78
2022/03/06 04:43:38;;;;;;;9.17;4.63;;;0.50;79.00;;;;;;5038504;28;20048;-78
2022/03/06 04:46:05;;;;;;;9.60;4.33;;;0.50;78.90;;;;;;5035714;28;20037;-81
2022/03/06 04:48:32;;;;;;;7.37;3.80;;;0.50;78.90;;;;;;5019384;28;20041;-82
2022/03/06 04:50:59;;;;;;;11.37;5.07;;;0.50;79.00;;;;;;5035811;28;20099;-82
2022/03/06 04:53:26;;;;;;;8.93;4.97;;;0.50;79.00;;;;;;5036102;28;20037;-81
2022/03/06 04:55:53;;;;;;;9.90;5.57;;;0.50;79.00;;;;;;5035774;28;20387;-81
2022/03/06 04:58:20;;;;;;;10.53;6.13;;;0.50;79.00;;;;;;5035859;28;20048;-81
2022/03/06 05:00:47;;;;;;;9.13;5.23;;;0.50;79.10;;;;;;5035815;28;20083;-81
2022/03/06 05:03:15;;;;;;;8.93;4.70;;;0.50;79.10;;;;;;5019724;28;20144;-82
2022/03/06 05:05:45;;;;;;;7.73;3.97;;;0.50;79.10;;;;;;5035520;28;20045;-82
2022/03/06 05:08:13;;;;;;;7.63;4.47;;;0.40;79.20;;;;;;5036125;28;20068;-81
2022/03/06 05:10:41;;;;;;;10.47;5.23;;;0.40;79.20;;;;;;5019235;28;20359;-81
2022/03/06 05:13:09;;;;;;;9.93;4.53;;;0.50;79.30;;;;;;5018943;28;20044;-81
2022/03/06 05:15:36;;;;;;;9.70;5.40;;;0.50;79.20;;;;;;5035290;28;20099;-81
2022/03/06 05:18:03;;;;;;;9.23;4.97;;;0.40;79.20;;;;;;5018855;28;20114;-81
2022/03/06 05:20:30;;;;;;;12.80;5.30;;;0.40;79.20;;;;;;5018568;28;20556;-82
2022/03/06 05:22:57;;;;;;;10.90;5.97;;;0.40;79.20;;;;;;5035330;28;20044;-82
2022/03/06 05:25:24;;;;;;;12.63;6.87;;;0.40;79.30;;;;;;5035190;28;20420;-83
2022/03/06 05:27:51;;;;;;;10.40;6.00;;;0.40;79.30;;;;;;5018788;28;20072;-82
2022/03/06 05:30:18;;;;;;;11.07;6.03;;;0.40;79.30;;;;;;5034870;28;20045;-82
2022/03/06 05:32:45;;;;;;;8.93;5.10;;;0.40;80.00;;;;;;5018588;28;20045;-82
2022/03/06 05:35:12;;;;;;;11.30;6.90;;;0.40;79.40;;;;;;5018262;28;20563;-82
2022/03/06 05:37:40;;;;;;;10.43;5.60;;;0.40;79.60;;;;;;5034800;28;20047;-82
2022/03/06 05:40:08;;;;;;;9.70;5.60;;;0.40;79.60;;;;;;5018627;28;20099;-82
2022/03/06 05:42:35;;;;;;;11.80;6.63;;;0.40;79.60;;;;;;5037923;28;20465;-82
2022/03/06 05:45:03;;;;;;;10.00;6.27;;;0.30;79.50;;;;;;5016943;28;20147;-82
2022/03/06 05:47:30;;;;;;;9.53;4.77;;;0.30;79.50;;;;;;5038527;28;20066;-82
2022/03/06 05:50:02;;;;;;;10.87;5.57;;;0.30;79.50;;;;;;5038801;28;20044;-83
2022/03/06 05:52:29;;;;;;;10.50;5.40;;;0.30;79.60;;;;;;5034126;28;20052;-83
2022/03/06 05:54:56;;;;;;;8.97;5.37;;;0.30;79.70;;;;;;5018412;28;20041;-82
2022/03/06 05:57:24;;;;;;;9.03;5.10;;;0.30;79.70;;;;;;5002639;28;20041;-82
2022/03/06 05:59:51;;;;;;;11.73;5.40;;;0.30;79.70;;;;;;5002491;28;20495;-78
2022/03/06 06:02:19;;;;;;;8.97;4.60;;;0.30;79.80;;;;;;5034914;28;20049;-78
2022/03/06 06:04:47;;;;;;;10.33;5.50;;;0.30;79.80;;;;;;5018247;28;20049;-78
2022/03/06 06:07:15;;;;;;;8.20;4.17;;;0.30;79.90;;;;;;5004817;28;20048;-78
2022/03/06 06:09:42;;;;;;;10.43;4.70;;;0.30;79.80;;;;;;5037469;28;20041;-78
2022/03/06 06:12:10;;;;;;;8.20;4.30;;;0.30;79.90;;;;;;5042629;28;20060;-82
2022/03/06 06:14:37;;;;;;;9.20;4.13;;;0.30;80.00;;;;;;5044041;28;20063;-82
2022/03/06 06:17:04;;;;;;;8.43;4.23;;;0.30;80.00;;;;;;5028411;28;20071;-82
2022/03/06 06:19:31;;;;;;;8.30;4.00;;;0.30;80.00;;;;;;5030828;28;20053;-82
2022/03/06 06:22:04;;;;;;;7.63;3.92;;;0.30;80.00;;;;;;5050913;28;20099;-82
2022/03/06 06:24:31;;;;;;;6.70;3.80;;;0.20;80.10;;;;;;5018324;28;20065;-82
2022/03/06 06:26:58;;;;;;;8.10;3.73;;;0.20;80.10;;;;;;5035433;28;20053;-83
2022/03/06 06:29:26;;;;;;;8.47;4.77;;;0.20;80.20;;;;;;5018867;28;20397;-78
2022/03/06 06:31:53;;;;;;;8.27;3.60;;;0.20;80.40;;;;;;5034764;28;20037;-78
2022/03/06 06:34:20;;;;;;;7.83;4.63;;;0.20;80.30;;;;;;5018251;28;20048;-78
2022/03/06 06:36:48;;;;;;;8.40;5.20;;;0.10;80.30;;;;;;5051265;28;20120;-78
2022/03/06 06:39:21;;;;;;;9.60;5.53;;;0.10;80.50;;;;;;5034952;28;20068;-78
2022/03/06 06:41:48;;;;;;;13.00;5.67;;;0.10;80.50;;;;;;5034252;28;20103;-78
2022/03/06 06:44:16;;;;;;;9.30;4.27;;;0.10;80.50;;;;;;5007062;28;20056;-77
2022/03/06 06:46:44;;;;;;;8.53;4.20;;;0.10;80.60;;;;;;5022165;28;20135;-78
2022/03/06 06:49:11;;;;;;;7.77;4.53;;;0.10;80.60;;;;;;5046898;28;20056;-78
2022/03/06 06:51:38;;;;;;;8.40;4.67;;;0.10;80.70;;;;;;5037846;28;20401;-77
2022/03/06 06:54:06;;;;;;;7.87;4.27;;;0.10;80.70;;;;;;5021521;28;20064;-78
2022/03/06 06:56:33;;;;;;;8.10;4.30;;;0.10;81.30;;;;;;5054589;28;20036;-77
2022/03/06 06:59:00;;;;;;;6.40;3.37;;;0.10;80.70;;;;;;5021633;28;20041;-78
2022/03/06 07:01:27;;;;;;;8.67;4.07;;;0.20;80.80;;;;;;5021151;28;20056;-77
2022/03/06 07:03:54;;;;;;;6.70;3.53;;;0.20;81.40;;;;;;5045248;28;20757;-80
2022/03/06 07:06:21;;;;;;;7.90;4.27;;;0.30;80.80;;;;;;5044484;28;20389;-82
2022/03/06 07:08:52;;;;;;;6.97;3.90;;;0.30;80.80;;;;;;5041192;28;20382;-82
2022/03/06 07:11:21;;;;;;;6.03;3.13;;;0.30;80.70;;;;;;5041240;28;20060;-86
2022/03/06 07:13:49;;;;;;;7.67;4.60;;;0.40;80.80;;;;;;5057647;28;20112;-78
2022/03/06 07:16:21;;;;;;;7.90;4.10;;;0.40;80.80;;;;;;5073834;28;20135;-78
2022/03/06 07:18:49;;;;;;;8.33;4.37;;;0.40;80.80;;;;;;5046395;28;20049;-77
2022/03/06 07:21:16;;;;;;;7.47;4.50;;;0.50;80.80;;;;;;5048453;28;20059;-78
2022/03/06 07:23:43;;;;;;;6.77;3.97;;;0.50;80.80;;;;;;5044115;28;20040;-77
2022/03/06 07:26:11;;;;;;;9.90;4.50;;;0.50;80.80;;;;;;5056907;28;20052;-77
2022/03/06 07:28:38;;;;;;;8.07;4.40;;;0.60;80.90;;;;;;5040338;28;20051;-77
2022/03/06 07:31:05;;;;;;;9.87;5.37;;;0.60;80.80;;;;;;5057642;28;20036;-77
2022/03/06 07:33:35;;;;;;;9.30;5.10;;;0.70;80.90;;;;;;5024001;28;20040;-78
2022/03/06 07:36:02;;;;;;;9.20;5.33;;;0.70;80.90;;;;;;5041008;28;20052;-77
2022/03/06 07:38:29;;;;;;;8.90;5.70;;;0.70;80.90;;;;;;5039536;28;20036;-77
2022/03/06 07:40:56;;;;;;;10.77;6.90;;;0.80;81.00;;;;;;5040581;28;20044;-78
2022/03/06 07:43:23;;;;;;;8.87;6.07;;;0.80;81.00;;;;;;5073632;28;20048;-78
2022/03/06 07:45:56;;;;;;;12.07;6.50;;;0.90;81.00;;;;;;5021799;28;20053;-78
2022/03/06 07:48:33;;;;;;;12.13;7.03;;;0.90;81.10;;;;;;5021710;28;20052;-78
2022/03/06 07:51:00;;;;;;;11.77;6.47;;;0.90;81.20;;;;;;5004503;28;20103;-78
2022/03/06 07:53:27;;;;;;;10.53;6.90;;;0.90;81.30;;;;;;5036826;28;20045;-77
2022/03/06 07:55:57;;;;;;;10.50;6.27;;;0.90;81.40;;;;;;5024051;28;20049;-76
2022/03/06 07:58:27;;;;;;;9.93;6.67;;;1.00;81.40;;;;;;5040184;28;20048;-78
2022/03/06 08:00:54;;;;;;;13.77;7.87;;;1.00;81.50;;;;;;5019447;28;20086;-78
2022/03/06 08:03:24;;;;;;;10.87;6.67;;;1.10;81.60;;;;;;5004002;28;20045;-78
2022/03/06 08:05:52;;;;;;;11.37;7.53;;;1.10;81.60;;;;;;5036613;28;20049;-78
2022/03/06 08:08:19;;;;;;;10.47;7.30;;;1.20;81.60;;;;;;5020003;28;20425;-78
2022/03/06 08:10:52;;;;;;;12.87;7.90;;;1.20;81.70;;;;;;5020269;28;20087;-77
2022/03/06 08:13:19;;;;;;;11.07;5.97;;;1.20;82.20;;;;;;5036562;28;20098;-77
2022/03/06 08:15:52;;;;;;;10.80;6.13;;;1.30;81.70;;;;;;5035692;28;20040;-77
2022/03/06 08:18:25;;;;;;;10.60;6.80;;;1.30;81.60;;;;;;5020200;28;20501;-77
2022/03/06 08:20:52;;;;;;;11.75;7.63;;;1.40;81.70;;;;;;5036041;28;20834;-77
2022/03/06 08:23:20;;;;;;;10.80;6.63;;;1.40;81.70;;;;;;5019997;28;20505;-76
2022/03/06 08:25:47;;;;;;;11.20;7.17;;;1.40;81.60;;;;;;5022440;28;20036;-76
2022/03/06 08:28:18;;;;;;;11.00;6.73;;;1.50;81.70;;;;;;5024900;28;20102;-76
2022/03/06 08:30:45;;;;;;;8.73;6.10;;;1.50;82.30;;;;;;5006622;28;20040;-76
2022/03/06 08:33:15;;;;;;;8.87;5.60;;;1.60;81.70;;;;;;5023421;28;20507;-76
2022/03/06 08:35:42;;;;;;;10.93;6.80;;;1.60;81.60;;;;;;5024127;28;20044;-76
2022/03/06 08:38:16;;;;;;;11.13;6.80;;;1.60;81.60;;;;;;5028428;28;20428;-78
2022/03/06 08:40:54;;;;;;;11.30;5.83;;;1.70;81.60;;;;;;5035623;28;20485;-76
2022/03/06 08:43:21;;;;;;;10.20;6.33;;;1.70;81.60;;;;;;5034367;28;20110;-76
2022/03/06 08:45:49;;;;;;;10.90;6.50;;;1.70;81.50;;;;;;5014560;28;20052;-82
2022/03/06 08:48:16;;;;;;;9.73;5.07;;;1.80;81.60;;;;;;5009134;28;20041;-82
2022/03/06 08:50:49;;;;;;;9.47;5.37;;;1.90;81.50;;;;;;5002892;28;20050;-82
2022/03/06 08:53:16;;;;;;;;;;;1.90;81.40;;;;;;5013295;28;20038;-82
2022/03/06 08:55:49;;;;;;;8.30;5.23;;;2.00;81.50;;;;;;4996519;28;19921;-82
2022/03/06 08:58:16;;;;;;;7.73;4.83;;;2.00;81.30;;;;;;5013145;28;20059;-82
2022/03/06 09:00:46;;;;;;;9.00;5.17;;;2.10;81.30;;;;;;5011222;28;20490;-82
2022/03/06 09:03:13;;;;;;;7.17;4.63;;;2.10;81.20;;;;;;5013210;28;20059;-82
2022/03/06 09:05:41;;;;;;;8.43;5.37;;;2.20;81.10;;;;;;5025368;28;20056;-82
2022/03/06 09:08:11;;;;;;;8.33;4.97;;;2.30;81.20;;;;;;4998553;28;20049;-83
2022/03/06 09:10:40;;;;;;;7.70;4.90;;;2.30;81.30;;;;;;5026927;28;20903;-83
2022/03/06 09:13:08;;;;;;;8.37;5.13;;;2.40;81.00;;;;;;5029964;28;20151;-82
2022/03/06 09:15:37;;;;;;;8.03;5.07;;;2.40;80.90;;;;;;5041461;28;20049;-82
2022/03/06 09:18:04;;;;;;;8.50;5.33;;;2.50;80.80;;;;;;5034129;28;20041;-77
2022/03/06 09:20:32;;;;;;;8.67;5.20;;;2.50;80.70;;;;;;5049211;28;20048;-77
2022/03/06 09:22:59;;;;;;;6.83;4.23;;;2.60;80.60;;;;;;5016966;28;20401;-77
2022/03/06 09:25:28;;;;;;;7.33;4.40;;;2.60;80.50;;;;;;5017512;28;20045;-77
2022/03/06 09:27:55;;;;;;;6.80;4.50;;;2.70;80.40;;;;;;5019917;28;20060;-77
2022/03/06 09:30:22;;;;;;;7.80;5.10;;;2.80;80.20;;;;;;5069743;28;20037;-78
2022/03/06 09:32:52;;;;;;;7.90;5.57;;;2.80;80.00;;;;;;5012147;28;20111;-78
2022/03/06 09:35:19;;;;;;;7.13;4.30;;;2.90;79.90;;;;;;5049521;28;20048;-77
2022/03/06 09:37:46;;;;;;;8.67;4.80;;;2.90;79.70;;;;;;4999923;28;20041;-78
2022/03/06 09:40:44;;;;;;;7.17;4.33;;;3.00;79.60;;;;;;5032068;28;20152;-77
2022/03/06 09:43:25;;;;;;;8.17;5.43;;;3.10;79.40;;;;;;5032927;28;20055;-82
2022/03/06 09:46:28;;;;;;;6.70;4.43;;;3.10;79.30;;;;;;5034986;28;20052;-77
2022/03/06 09:49:10;;;;;;;8.27;4.27;;;3.20;79.10;;;;;;5065516;28;20162;-77
2022/03/06 09:51:41;;;;;;;7.27;4.07;;;3.30;79.00;;;;;;5052646;28;20041;-77
2022/03/06 09:54:12;;;;;;;5.83;3.60;;;3.30;78.80;;;;;;5036910;28;20087;-77
2022/03/06 09:56:40;;;;;;;5.90;3.53;;;3.40;78.80;;;;;;5039676;28;20036;-77
2022/03/06 09:59:08;;;;;;;7.07;3.90;;;3.50;78.60;;;;;;5038276;28;20041;-78
2022/03/06 10:01:35;;;;;;;6.53;4.07;;;3.50;78.40;;;;;;5054953;28;20044;-77
2022/03/06 10:04:25;;;;;;;6.22;3.88;;;3.60;78.10;;;;;;5054553;28;20794;-79
2022/03/06 10:07:03;;;;;;;6.50;3.67;;;3.70;77.90;;;;;;5038158;28;20056;-78
2022/03/06 10:09:50;;;;;;;7.40;4.53;;;3.80;77.60;;;;;;5044112;28;20059;-77
2022/03/06 10:12:32;;;;;;;7.63;4.10;;;3.80;77.20;;;;;;5037476;28;20051;-77
2022/03/06 10:15:03;;;;;;;6.87;3.93;;;3.90;77.20;;;;;;5037881;28;20052;-77
2022/03/06 10:17:32;;;;;;;6.43;3.93;;;3.90;76.70;;;;;;5021753;28;20461;-77
2022/03/06 10:20:05;;;;;;;6.20;3.50;;;4.00;77.10;;;;;;5053883;28;20068;-78
2022/03/06 10:22:41;;;;;;;;;;;4.00;76.40;;;;;;5039466;28;20044;-77
2022/03/06 10:25:21;;;;;;;5.43;3.80;;;4.10;76.20;;;;;;5074059;28;19996;-77
2022/03/06 10:27:57;;;;;;;6.73;4.30;;;4.00;75.80;;;;;;5054050;28;20054;-77
2022/03/06 10:30:26;;;;;;;5.30;3.53;;;4.10;75.60;;;;;;5037665;28;20075;-77
2022/03/06 10:32:54;;;;;;;5.93;4.10;;;4.20;75.60;;;;;;5038174;28;20074;-77
2022/03/06 10:35:39;;;;;;;6.67;3.73;;;4.20;75.30;;;;;;5025966;28;20071;-77
2022/03/06 10:38:23;;;;;;;4.87;3.50;;;4.30;75.00;;;;;;5055548;28;20389;-77
2022/03/06 10:40:51;;;;;;;7.07;3.53;;;4.30;74.60;;;;;;5041700;28;20080;-77
2022/03/06 10:43:22;;;;;;;6.30;3.70;;;4.40;74.80;;;;;;5058221;28;20083;-77
2022/03/06 10:46:03;;;;;;;5.13;3.27;;;4.40;74.40;;;;;;5057343;28;20044;-77
2022/03/06 10:48:32;;;;;;;6.70;3.30;;;4.50;74.40;;;;;;5041288;28;20470;-77
2022/03/06 10:51:07;;;;;;;5.72;3.45;;;4.50;74.00;;;;;;5041108;28;20040;-77
2022/03/06 10:53:35;;;;;;;7.38;4.40;;;4.60;73.70;;;;;;5062477;28;20032;-77
2022/03/06 10:56:15;;;;;;;6.40;3.45;;;4.60;73.50;;;;;;5062591;28;20053;-77
2022/03/06 10:58:46;;;;;;;4.70;2.72;;;4.70;73.40;;;;;;5041580;28;20047;-77
2022/03/06 11:01:27;;;;;;;5.13;3.22;;;4.80;73.30;;;;;;5047289;28;20053;-77
2022/03/06 11:03:57;;;;;;;4.60;2.75;;;4.80;73.20;;;;;;5049527;28;20396;-77
2022/03/06 11:06:27;;;;;;;4.68;3.20;;;4.90;73.00;;;;;;5071488;28;20087;-77
2022/03/06 11:08:54;;;;;;;5.63;3.05;;;5.00;72.90;;;;;;5087001;28;20496;-78
2022/03/06 11:11:22;;;;;;;5.38;3.08;;;5.00;72.40;;;;;;5061602;28;20043;-77
2022/03/06 11:13:53;;;;;;;5.70;2.67;;;5.10;72.30;;;;;;5058277;28;20063;-77
2022/03/06 11:16:20;;;;;;;6.03;3.20;;;5.10;71.90;;;;;;5060895;28;20512;-77
2022/03/06 11:18:48;;;;;;;6.78;2.97;;;5.10;71.40;;;;;;5024000;28;20124;-77
2022/03/06 11:21:15;;;;;;;5.20;2.90;;;5.10;71.50;;;;;;5057686;28;20045;-83
2022/03/06 11:23:51;;;;;;;6.00;2.95;;;5.20;71.40;;;;;;5024359;28;20056;-83
2022/03/06 11:27:04;;;;;;;4.82;3.28;;;5.30;71.10;;;;;;5052927;28;20058;-77
2022/03/06 11:29:39;;;;;;;4.97;3.20;;;5.30;70.80;;;;;;4977121;28;20563;-77
2022/03/06 11:32:07;;;;;;;5.75;3.75;;;5.30;70.20;;;;;;5012298;28;20049;-77
2022/03/06 11:34:39;;;;;;;7.28;4.30;;;5.30;69.90;;;;;;5022863;28;20088;-77
2022/03/06 11:37:15;;;;;;;6.82;4.40;;;5.40;68.60;;;;;;5077089;28;20048;-77
2022/03/06 11:39:42;;;;;;;5.93;3.53;;;5.40;68.40;;;;;;5049681;28;20039;-77
2022/03/06 11:42:10;;;;;;;6.57;3.72;;;5.40;68.30;;;;;;5047866;28;20067;-77
2022/03/06 11:44:47;;;;;;;5.45;3.17;;;5.50;68.50;;;;;;5056201;28;20534;-77
2022/03/06 11:47:35;;;;;;;5.13;2.83;;;5.50;68.30;;;;;;5047229;28;20043;-77
2022/03/06 11:50:02;;;;;;;6.50;4.05;;;5.60;68.10;;;;;;5054850;28;20136;-77
2022/03/06 11:52:32;;;;;;;7.70;5.10;;;5.60;67.70;;;;;;5044871;28;20439;-77
2022/03/06 11:55:01;;;;;;;7.20;4.15;;;5.70;67.00;;;;;;5066599;28;20047;-77
2022/03/06 11:57:44;;;;;;;7.22;3.80;;;5.70;66.80;;;;;;5067971;28;20049;-77
2022/03/06 12:00:20;;;;;;;6.45;3.75;;;5.70;66.90;;;;;;5068442;28;20052;-77
2022/03/06 12:02:49;;;;;;;5.47;3.33;;;5.70;66.80;;;;;;5057062;28;20043;-83
2022/03/06 12:05:19;;;;;;;4.68;3.03;;;5.70;66.70;;;;;;5040688;28;20144;-82
2022/03/06 12:07:47;;;;;;;5.22;3.03;;;5.80;66.70;;;;;;5075073;28;20036;-83
2022/03/06 12:10:19;;;;;;;5.93;3.40;;;5.90;66.60;;;;;;5057033;28;20036;-83
2022/03/06 12:13:18;;;;;;;6.68;3.47;;;5.90;66.00;;;;;;5056719;28;20102;-83
2022/03/06 12:16:06;;;;;;;5.28;3.30;;;5.80;65.80;;;;;;5069741;28;20191;-81
2022/03/06 12:18:34;;;;;;;6.80;3.42;;;5.80;65.90;;;;;;5039829;28;20041;-81
2022/03/06 12:21:18;;;;;;;5.68;3.35;;;5.80;66.10;;;;;;5039792;28;20170;-87
2022/03/06 12:23:46;;;;;;;4.97;3.20;;;5.80;66.00;;;;;;5056824;28;20051;-79
2022/03/06 12:26:36;;;;;;;6.15;3.08;;;5.90;66.20;;;;;;5056495;28;20044;-80
2022/03/06 12:29:03;;;;;;;5.68;2.67;;;6.00;66.10;;;;;;5050012;28;20077;-80
2022/03/06 12:31:36;;;;;;;5.05;2.50;;;6.10;65.60;;;;;;5064067;28;20040;-77
2022/03/06 12:34:38;;;;;;;4.82;2.83;;;6.00;65.50;;;;;;5040004;28;20048;-78
2022/03/06 12:37:06;;;;;;;5.45;2.88;;;6.00;65.10;;;;;;5055769;28;20049;-77
2022/03/06 12:39:35;;;;;;;5.68;3.50;;;6.00;65.20;;;;;;5039045;28;20032;-77
2022/03/06 12:42:03;;;;;;;5.35;3.00;;;6.10;65.30;;;;;;5039147;28;20044;-77
2022/03/06 12:44:32;;;;;;;9.82;5.70;;;6.20;65.10;;;;;;5061190;28;20101;-77
2022/03/06 12:46:59;;;;;;;7.75;4.30;;;6.30;64.40;;;;;;5067399;28;20045;-77
2022/03/06 12:49:27;;;;;;;7.05;4.50;;;6.30;64.10;;;;;;5060159;28;20548;-78
2022/03/06 12:51:55;;;;;;;6.32;3.63;;;6.20;63.50;;;;;;5022840;28;20041;-77
2022/03/06 12:54:26;;;;;;;6.15;3.70;;;6.10;63.70;;;;;;5067416;28;20029;-79
2022/03/06 12:56:55;;;;;;;7.15;3.60;;;6.00;63.80;;;;;;5062130;28;20117;-79
2022/03/06 12:59:23;;;;;;;6.65;3.78;;;6.00;63.70;;;;;;5057135;28;20044;-80
2022/03/06 13:01:52;;;;;;;6.30;3.25;;;6.00;63.40;;;;;;5022367;28;20923;-78
2022/03/06 13:04:21;;;;;;;6.45;3.85;;;6.00;63.80;;;;;;5055388;28;20037;-80
2022/03/06 13:06:50;;;;;;;9.00;4.85;;;6.10;63.30;;;;;;5039144;28;20097;-78